sensor_id;sensor_type;location;lat;lon;timestamp;P1;durP1;ratioP1;P2;durP2;ratioP2
27899;SDS011;15243;50.726;7.080;2022-12-26T00:03:45;2.97;;;1.80;;
27899;SDS011;15243;50.726;7.080;2022-12-26T00:06:13;5.18;;;1.70;;
27899;SDS011;15243;50.726;7.080;2022-12-26T00:08:42;4.38;;;1.75;;
27899;SDS011;15243;50.726;7.080;2022-12-26T00:11:10;5.07;;;1.88;;
27899;SDS011;15243;50.726;7.080;2022-12-26T00:13:37;2.70;;;1.67;;
27899;SDS011;15243;50.726;7.080;2022-12-26T00:16:12;4.00;;;2.20;;
27899;SDS011;15243;50.726;7.080;2022-12-26T00:18:41;3.30;;;2.05;;
27899;SDS011;15243;50.726;7.080;2022-12-26T00:21:09;4.13;;;1.92;;
27899;SDS011;15243;50.726;7.080;2022-12-26T00:23:38;5.18;;;1.98;;
27899;SDS011;15243;50.726;7.080;2022-12-26T00:26:10;4.28;;;1.80;;
27899;SDS011;15243;50.726;7.080;2022-12-26T00:28:42;4.13;;;2.00;;
27899;SDS011;15243;50.726;7.080;2022-12-26T00:31:11;6.00;;;2.25;;
27899;SDS011;15243;50.726;7.080;2022-12-26T00:36:11;3.97;;;1.70;;
27899;SDS011;15243;50.726;7.080;2022-12-26T00:38:40;8.38;;;2.17;;
27899;SDS011;15243;50.726;7.080;2022-12-26T00:41:08;6.50;;;1.90;;
27899;SDS011;15243;50.726;7.080;2022-12-26T00:43:36;6.97;;;2.22;;
27899;SDS011;15243;50.726;7.080;2022-12-26T00:46:03;6.55;;;1.98;;
27899;SDS011;15243;50.726;7.080;2022-12-26T00:48:31;6.63;;;2.30;;
27899;SDS011;15243;50.726;7.080;2022-12-26T00:50:58;7.38;;;2.50;;
27899;SDS011;15243;50.726;7.080;2022-12-26T00:53:25;7.70;;;2.65;;
27899;SDS011;15243;50.726;7.080;2022-12-26T00:55:53;4.38;;;1.92;;
27899;SDS011;15243;50.726;7.080;2022-12-26T00:58:20;7.43;;;2.20;;
27899;SDS011;15243;50.726;7.080;2022-12-26T01:00:48;4.75;;;1.95;;
27899;SDS011;15243;50.726;7.080;2022-12-26T01:03:15;4.70;;;2.03;;
27899;SDS011;15243;50.726;7.080;2022-12-26T01:05:43;5.88;;;2.20;;
27899;SDS011;15243;50.726;7.080;2022-12-26T01:08:11;4.00;;;1.77;;
27899;SDS011;15243;50.726;7.080;2022-12-26T01:10:49;5.35;;;1.65;;
27899;SDS011;15243;50.726;7.080;2022-12-26T01:13:16;5.72;;;2.78;;
27899;SDS011;15243;50.726;7.080;2022-12-26T01:15:47;6.15;;;2.33;;
27899;SDS011;15243;50.726;7.080;2022-12-26T01:18:18;6.28;;;2.00;;
27899;SDS011;15243;50.726;7.080;2022-12-26T01:20:46;3.95;;;2.00;;
27899;SDS011;15243;50.726;7.080;2022-12-26T01:23:13;4.40;;;2.10;;
27899;SDS011;15243;50.726;7.080;2022-12-26T01:25:40;4.30;;;1.92;;
27899;SDS011;15243;50.726;7.080;2022-12-26T01:28:27;4.97;;;2.00;;
27899;SDS011;15243;50.726;7.080;2022-12-26T01:30:54;5.88;;;1.90;;
27899;SDS011;15243;50.726;7.080;2022-12-26T01:33:20;5.30;;;1.98;;
27899;SDS011;15243;50.726;7.080;2022-12-26T01:35:48;5.53;;;1.75;;
27899;SDS011;15243;50.726;7.080;2022-12-26T01:38:19;4.93;;;1.77;;
27899;SDS011;15243;50.726;7.080;2022-12-26T01:40:47;6.43;;;1.92;;
27899;SDS011;15243;50.726;7.080;2022-12-26T01:43:14;3.72;;;1.67;;
27899;SDS011;15243;50.726;7.080;2022-12-26T01:45:43;8.27;;;2.10;;
27899;SDS011;15243;50.726;7.080;2022-12-26T01:48:21;5.13;;;2.17;;
27899;SDS011;15243;50.726;7.080;2022-12-26T01:50:59;3.22;;;1.65;;
27899;SDS011;15243;50.726;7.080;2022-12-26T01:53:30;6.25;;;1.85;;
27899;SDS011;15243;50.726;7.080;2022-12-26T01:56:21;3.72;;;1.70;;
27899;SDS011;15243;50.726;7.080;2022-12-26T01:58:53;4.93;;;1.90;;
27899;SDS011;15243;50.726;7.080;2022-12-26T02:01:28;6.30;;;1.88;;
27899;SDS011;15243;50.726;7.080;2022-12-26T02:03:59;6.03;;;2.10;;
27899;SDS011;15243;50.726;7.080;2022-12-26T02:06:48;6.28;;;2.60;;
27899;SDS011;15243;50.726;7.080;2022-12-26T02:09:15;4.88;;;1.80;;
27899;SDS011;15243;50.726;7.080;2022-12-26T02:11:43;6.15;;;2.38;;
27899;SDS011;15243;50.726;7.080;2022-12-26T02:14:33;4.20;;;2.13;;
27899;SDS011;15243;50.726;7.080;2022-12-26T02:17:02;2.67;;;1.75;;
27899;SDS011;15243;50.726;7.080;2022-12-26T02:36:40;8.13;;;2.28;;
27899;SDS011;15243;50.726;7.080;2022-12-26T02:45:23;6.07;;;1.90;;
27899;SDS011;15243;50.726;7.080;2022-12-26T02:48:19;6.15;;;2.05;;
27899;SDS011;15243;50.726;7.080;2022-12-26T02:51:14;5.95;;;1.80;;
27899;SDS011;15243;50.726;7.080;2022-12-26T02:54:38;6.60;;;2.28;;
27899;SDS011;15243;50.726;7.080;2022-12-26T02:57:46;4.47;;;2.50;;
27899;SDS011;15243;50.726;7.080;2022-12-26T03:00:43;6.55;;;1.92;;
27899;SDS011;15243;50.726;7.080;2022-12-26T03:03:32;7.82;;;2.15;;
27899;SDS011;15243;50.726;7.080;2022-12-26T03:06:21;3.97;;;1.80;;
27899;SDS011;15243;50.726;7.080;2022-12-26T03:09:10;2.88;;;1.63;;
27899;SDS011;15243;50.726;7.080;2022-12-26T03:12:02;5.82;;;1.80;;
27899;SDS011;15243;50.726;7.080;2022-12-26T03:15:08;4.90;;;1.83;;
27899;SDS011;15243;50.726;7.080;2022-12-26T03:17:42;8.93;;;2.28;;
27899;SDS011;15243;50.726;7.080;2022-12-26T03:20:14;4.00;;;1.70;;
27899;SDS011;15243;50.726;7.080;2022-12-26T03:22:55;8.15;;;1.85;;
27899;SDS011;15243;50.726;7.080;2022-12-26T03:28:14;4.40;;;2.00;;
27899;SDS011;15243;50.726;7.080;2022-12-26T03:30:41;7.43;;;2.22;;
27899;SDS011;15243;50.726;7.080;2022-12-26T03:33:15;6.57;;;2.40;;
27899;SDS011;15243;50.726;7.080;2022-12-26T03:36:02;2.72;;;1.63;;
27899;SDS011;15243;50.726;7.080;2022-12-26T03:38:34;4.43;;;1.98;;
27899;SDS011;15243;50.726;7.080;2022-12-26T03:41:29;7.00;;;1.75;;
27899;SDS011;15243;50.726;7.080;2022-12-26T03:47:35;2.50;;;1.70;;
27899;SDS011;15243;50.726;7.080;2022-12-26T03:53:33;3.42;;;1.60;;
27899;SDS011;15243;50.726;7.080;2022-12-26T03:59:27;4.07;;;2.10;;
27899;SDS011;15243;50.726;7.080;2022-12-26T04:02:19;4.25;;;1.70;;
27899;SDS011;15243;50.726;7.080;2022-12-26T04:05:05;2.53;;;1.58;;
27899;SDS011;15243;50.726;7.080;2022-12-26T04:07:54;5.95;;;2.05;;
27899;SDS011;15243;50.726;7.080;2022-12-26T04:10:47;4.45;;;1.88;;
27899;SDS011;15243;50.726;7.080;2022-12-26T04:13:40;3.40;;;1.75;;
27899;SDS011;15243;50.726;7.080;2022-12-26T04:16:36;5.15;;;2.00;;
27899;SDS011;15243;50.726;7.080;2022-12-26T04:22:26;2.75;;;1.58;;
27899;SDS011;15243;50.726;7.080;2022-12-26T04:25:25;6.25;;;2.13;;
27899;SDS011;15243;50.726;7.080;2022-12-26T04:28:17;3.67;;;1.92;;
27899;SDS011;15243;50.726;7.080;2022-12-26T04:31:08;4.45;;;2.10;;
27899;SDS011;15243;50.726;7.080;2022-12-26T04:34:06;3.25;;;2.13;;
27899;SDS011;15243;50.726;7.080;2022-12-26T04:36:57;2.17;;;1.38;;
27899;SDS011;15243;50.726;7.080;2022-12-26T04:39:47;3.45;;;1.63;;
27899;SDS011;15243;50.726;7.080;2022-12-26T04:42:35;4.97;;;2.42;;
27899;SDS011;15243;50.726;7.080;2022-12-26T04:45:22;3.85;;;1.50;;
27899;SDS011;15243;50.726;7.080;2022-12-26T04:47:50;4.63;;;2.05;;
27899;SDS011;15243;50.726;7.080;2022-12-26T04:50:35;5.82;;;2.28;;
27899;SDS011;15243;50.726;7.080;2022-12-26T04:53:13;3.33;;;1.92;;
27899;SDS011;15243;50.726;7.080;2022-12-26T04:55:40;4.85;;;2.30;;
27899;SDS011;15243;50.726;7.080;2022-12-26T04:58:07;5.63;;;1.90;;
27899;SDS011;15243;50.726;7.080;2022-12-26T05:00:34;4.90;;;1.80;;
27899;SDS011;15243;50.726;7.080;2022-12-26T05:03:01;3.83;;;1.80;;
27899;SDS011;15243;50.726;7.080;2022-12-26T05:05:47;4.43;;;1.85;;
27899;SDS011;15243;50.726;7.080;2022-12-26T05:08:41;3.50;;;1.65;;
27899;SDS011;15243;50.726;7.080;2022-12-26T05:11:29;6.72;;;2.00;;
27899;SDS011;15243;50.726;7.080;2022-12-26T05:13:58;4.35;;;1.67;;
27899;SDS011;15243;50.726;7.080;2022-12-26T05:16:26;5.47;;;2.20;;
27899;SDS011;15243;50.726;7.080;2022-12-26T05:19:13;4.38;;;1.90;;
27899;SDS011;15243;50.726;7.080;2022-12-26T05:22:01;7.55;;;2.30;;
27899;SDS011;15243;50.726;7.080;2022-12-26T05:24:48;6.68;;;2.70;;
27899;SDS011;15243;50.726;7.080;2022-12-26T05:27:34;3.03;;;1.52;;
27899;SDS011;15243;50.726;7.080;2022-12-26T05:30:23;3.42;;;1.50;;
27899;SDS011;15243;50.726;7.080;2022-12-26T05:32:49;7.57;;;2.10;;
27899;SDS011;15243;50.726;7.080;2022-12-26T05:35:35;5.60;;;1.80;;
27899;SDS011;15243;50.726;7.080;2022-12-26T05:38:02;4.20;;;1.70;;
27899;SDS011;15243;50.726;7.080;2022-12-26T05:40:29;4.40;;;1.90;;
27899;SDS011;15243;50.726;7.080;2022-12-26T05:42:56;6.75;;;2.38;;
27899;SDS011;15243;50.726;7.080;2022-12-26T05:45:23;3.83;;;1.73;;
27899;SDS011;15243;50.726;7.080;2022-12-26T05:47:55;5.55;;;1.95;;
27899;SDS011;15243;50.726;7.080;2022-12-26T05:50:24;2.50;;;1.67;;
27899;SDS011;15243;50.726;7.080;2022-12-26T05:52:51;7.22;;;1.70;;
27899;SDS011;15243;50.726;7.080;2022-12-26T05:55:18;5.70;;;1.83;;
27899;SDS011;15243;50.726;7.080;2022-12-26T05:57:45;3.13;;;1.88;;
27899;SDS011;15243;50.726;7.080;2022-12-26T06:00:12;3.85;;;2.05;;
27899;SDS011;15243;50.726;7.080;2022-12-26T06:02:39;5.15;;;1.60;;
27899;SDS011;15243;50.726;7.080;2022-12-26T06:05:06;6.57;;;1.80;;
27899;SDS011;15243;50.726;7.080;2022-12-26T06:07:33;3.65;;;1.95;;
27899;SDS011;15243;50.726;7.080;2022-12-26T06:10:00;3.30;;;1.75;;
27899;SDS011;15243;50.726;7.080;2022-12-26T06:12:27;6.88;;;1.80;;
27899;SDS011;15243;50.726;7.080;2022-12-26T06:14:54;4.20;;;1.80;;
27899;SDS011;15243;50.726;7.080;2022-12-26T06:17:20;4.75;;;2.47;;
27899;SDS011;15243;50.726;7.080;2022-12-26T06:19:47;4.70;;;2.10;;
27899;SDS011;15243;50.726;7.080;2022-12-26T06:22:14;4.85;;;2.00;;
27899;SDS011;15243;50.726;7.080;2022-12-26T06:24:40;3.53;;;2.00;;
27899;SDS011;15243;50.726;7.080;2022-12-26T06:27:07;4.65;;;1.73;;
27899;SDS011;15243;50.726;7.080;2022-12-26T06:29:34;4.82;;;2.40;;
27899;SDS011;15243;50.726;7.080;2022-12-26T06:32:02;3.90;;;1.73;;
27899;SDS011;15243;50.726;7.080;2022-12-26T06:34:30;3.30;;;2.00;;
27899;SDS011;15243;50.726;7.080;2022-12-26T06:36:57;5.07;;;1.90;;
27899;SDS011;15243;50.726;7.080;2022-12-26T06:39:23;3.92;;;1.90;;
27899;SDS011;15243;50.726;7.080;2022-12-26T06:41:50;5.75;;;2.10;;
27899;SDS011;15243;50.726;7.080;2022-12-26T06:44:17;3.97;;;2.10;;
27899;SDS011;15243;50.726;7.080;2022-12-26T06:46:44;5.78;;;1.85;;
27899;SDS011;15243;50.726;7.080;2022-12-26T06:49:11;4.20;;;1.00;;
27899;SDS011;15243;50.726;7.080;2022-12-26T06:51:38;0.55;;;0.50;;
27899;SDS011;15243;50.726;7.080;2022-12-26T06:54:06;1.42;;;0.77;;
27899;SDS011;15243;50.726;7.080;2022-12-26T06:56:33;2.92;;;0.82;;
27899;SDS011;15243;50.726;7.080;2022-12-26T06:59:01;3.10;;;0.70;;
27899;SDS011;15243;50.726;7.080;2022-12-26T07:01:29;2.75;;;0.77;;
27899;SDS011;15243;50.726;7.080;2022-12-26T07:03:58;1.58;;;0.80;;
27899;SDS011;15243;50.726;7.080;2022-12-26T07:06:27;1.38;;;0.80;;
27899;SDS011;15243;50.726;7.080;2022-12-26T07:08:56;2.40;;;0.95;;
27899;SDS011;15243;50.726;7.080;2022-12-26T07:11:27;1.83;;;1.35;;
27899;SDS011;15243;50.726;7.080;2022-12-26T07:13:56;3.25;;;1.40;;
27899;SDS011;15243;50.726;7.080;2022-12-26T07:16:23;2.97;;;2.03;;
27899;SDS011;15243;50.726;7.080;2022-12-26T07:18:51;2.00;;;1.25;;
27899;SDS011;15243;50.726;7.080;2022-12-26T07:21:23;2.17;;;1.23;;
27899;SDS011;15243;50.726;7.080;2022-12-26T07:23:50;1.45;;;0.90;;
27899;SDS011;15243;50.726;7.080;2022-12-26T07:26:18;2.92;;;1.25;;
27899;SDS011;15243;50.726;7.080;2022-12-26T07:28:45;4.35;;;2.25;;
27899;SDS011;15243;50.726;7.080;2022-12-26T07:31:16;3.40;;;1.70;;
27899;SDS011;15243;50.726;7.080;2022-12-26T07:33:51;2.45;;;1.63;;
27899;SDS011;15243;50.726;7.080;2022-12-26T07:36:19;1.63;;;1.40;;
27899;SDS011;15243;50.726;7.080;2022-12-26T07:38:47;3.38;;;1.30;;
27899;SDS011;15243;50.726;7.080;2022-12-26T07:41:14;3.10;;;1.50;;
27899;SDS011;15243;50.726;7.080;2022-12-26T07:43:59;2.20;;;1.30;;
27899;SDS011;15243;50.726;7.080;2022-12-26T07:46:26;5.00;;;1.27;;
27899;SDS011;15243;50.726;7.080;2022-12-26T07:48:53;5.68;;;1.95;;
27899;SDS011;15243;50.726;7.080;2022-12-26T07:51:20;3.00;;;1.30;;
27899;SDS011;15243;50.726;7.080;2022-12-26T07:53:47;8.45;;;1.83;;
27899;SDS011;15243;50.726;7.080;2022-12-26T07:56:14;6.95;;;1.83;;
27899;SDS011;15243;50.726;7.080;2022-12-26T07:58:41;7.10;;;1.92;;
27899;SDS011;15243;50.726;7.080;2022-12-26T08:01:08;6.60;;;2.30;;
27899;SDS011;15243;50.726;7.080;2022-12-26T08:03:35;5.38;;;1.63;;
27899;SDS011;15243;50.726;7.080;2022-12-26T08:06:02;5.72;;;1.80;;
27899;SDS011;15243;50.726;7.080;2022-12-26T08:08:29;3.83;;;1.90;;
27899;SDS011;15243;50.726;7.080;2022-12-26T08:10:59;6.22;;;2.00;;
27899;SDS011;15243;50.726;7.080;2022-12-26T08:13:34;4.13;;;2.35;;
27899;SDS011;15243;50.726;7.080;2022-12-26T08:16:04;4.85;;;2.03;;
27899;SDS011;15243;50.726;7.080;2022-12-26T08:18:33;3.15;;;2.22;;
27899;SDS011;15243;50.726;7.080;2022-12-26T08:21:00;6.57;;;2.50;;
27899;SDS011;15243;50.726;7.080;2022-12-26T08:23:27;10.90;;;2.85;;
27899;SDS011;15243;50.726;7.080;2022-12-26T08:25:54;5.97;;;2.70;;
27899;SDS011;15243;50.726;7.080;2022-12-26T08:28:21;4.80;;;2.38;;
27899;SDS011;15243;50.726;7.080;2022-12-26T08:30:48;6.57;;;2.88;;
27899;SDS011;15243;50.726;7.080;2022-12-26T08:33:15;5.13;;;2.80;;
27899;SDS011;15243;50.726;7.080;2022-12-26T08:35:42;6.03;;;3.10;;
27899;SDS011;15243;50.726;7.080;2022-12-26T08:38:09;12.15;;;3.72;;
27899;SDS011;15243;50.726;7.080;2022-12-26T08:40:36;7.30;;;2.80;;
27899;SDS011;15243;50.726;7.080;2022-12-26T08:43:10;12.13;;;3.30;;
27899;SDS011;15243;50.726;7.080;2022-12-26T08:46:02;12.15;;;3.30;;
27899;SDS011;15243;50.726;7.080;2022-12-26T08:48:32;13.27;;;3.60;;
27899;SDS011;15243;50.726;7.080;2022-12-26T08:51:00;10.18;;;3.25;;
27899;SDS011;15243;50.726;7.080;2022-12-26T08:53:31;9.55;;;3.70;;
27899;SDS011;15243;50.726;7.080;2022-12-26T08:56:01;11.15;;;3.80;;
27899;SDS011;15243;50.726;7.080;2022-12-26T08:58:30;12.57;;;5.03;;
27899;SDS011;15243;50.726;7.080;2022-12-26T09:01:13;8.90;;;4.32;;
27899;SDS011;15243;50.726;7.080;2022-12-26T09:03:42;5.70;;;3.30;;
27899;SDS011;15243;50.726;7.080;2022-12-26T09:06:10;9.82;;;4.25;;
27899;SDS011;15243;50.726;7.080;2022-12-26T09:08:38;9.20;;;4.95;;
27899;SDS011;15243;50.726;7.080;2022-12-26T09:11:13;11.77;;;5.15;;
27899;SDS011;15243;50.726;7.080;2022-12-26T09:13:44;8.55;;;4.28;;
27899;SDS011;15243;50.726;7.080;2022-12-26T09:16:19;10.75;;;3.95;;
27899;SDS011;15243;50.726;7.080;2022-12-26T09:18:50;8.40;;;4.03;;
27899;SDS011;15243;50.726;7.080;2022-12-26T09:21:20;8.43;;;3.80;;
27899;SDS011;15243;50.726;7.080;2022-12-26T09:23:47;8.65;;;4.18;;
27899;SDS011;15243;50.726;7.080;2022-12-26T09:26:15;8.85;;;4.28;;
27899;SDS011;15243;50.726;7.080;2022-12-26T09:28:43;10.32;;;4.63;;
27899;SDS011;15243;50.726;7.080;2022-12-26T09:31:13;7.50;;;3.67;;
27899;SDS011;15243;50.726;7.080;2022-12-26T09:33:42;5.90;;;3.25;;
27899;SDS011;15243;50.726;7.080;2022-12-26T09:36:13;6.75;;;3.78;;
27899;SDS011;15243;50.726;7.080;2022-12-26T09:38:41;7.57;;;3.90;;
27899;SDS011;15243;50.726;7.080;2022-12-26T09:43:46;9.05;;;4.70;;
27899;SDS011;15243;50.726;7.080;2022-12-26T09:49:30;11.52;;;5.15;;
27899;SDS011;15243;50.726;7.080;2022-12-26T09:52:03;13.38;;;4.40;;
27899;SDS011;15243;50.726;7.080;2022-12-26T09:54:36;8.52;;;3.30;;
27899;SDS011;15243;50.726;7.080;2022-12-26T10:00:35;4.57;;;2.20;;
27899;SDS011;15243;50.726;7.080;2022-12-26T10:03:08;4.43;;;2.03;;
27899;SDS011;15243;50.726;7.080;2022-12-26T10:05:40;2.65;;;1.45;;
27899;SDS011;15243;50.726;7.080;2022-12-26T10:08:26;2.10;;;1.50;;
27899;SDS011;15243;50.726;7.080;2022-12-26T10:11:20;1.20;;;0.90;;
27899;SDS011;15243;50.726;7.080;2022-12-26T10:14:06;4.45;;;1.08;;
27899;SDS011;15243;50.726;7.080;2022-12-26T10:16:52;4.25;;;1.02;;
27899;SDS011;15243;50.726;7.080;2022-12-26T10:22:54;4.65;;;1.08;;
27899;SDS011;15243;50.726;7.080;2022-12-26T10:25:46;3.70;;;1.10;;
27899;SDS011;15243;50.726;7.080;2022-12-26T10:28:28;3.47;;;0.82;;
27899;SDS011;15243;50.726;7.080;2022-12-26T10:31:03;3.37;;;1.10;;
27899;SDS011;15243;50.726;7.080;2022-12-26T10:36:14;5.65;;;1.10;;
27899;SDS011;15243;50.726;7.080;2022-12-26T10:38:45;5.43;;;1.10;;
27899;SDS011;15243;50.726;7.080;2022-12-26T10:41:19;2.45;;;0.80;;
27899;SDS011;15243;50.726;7.080;2022-12-26T10:43:51;3.33;;;0.88;;
27899;SDS011;15243;50.726;7.080;2022-12-26T10:48:57;3.45;;;0.85;;
27899;SDS011;15243;50.726;7.080;2022-12-26T10:51:24;6.47;;;1.42;;
27899;SDS011;15243;50.726;7.080;2022-12-26T10:53:52;3.67;;;1.15;;
27899;SDS011;15243;50.726;7.080;2022-12-26T10:56:20;6.22;;;0.93;;
27899;SDS011;15243;50.726;7.080;2022-12-26T10:58:57;2.58;;;0.70;;
27899;SDS011;15243;50.726;7.080;2022-12-26T11:01:30;1.73;;;0.65;;
27899;SDS011;15243;50.726;7.080;2022-12-26T11:04:00;1.83;;;0.90;;
27899;SDS011;15243;50.726;7.080;2022-12-26T11:06:31;3.80;;;0.88;;
27899;SDS011;15243;50.726;7.080;2022-12-26T11:09:02;4.65;;;0.80;;
27899;SDS011;15243;50.726;7.080;2022-12-26T11:11:30;4.35;;;1.00;;
27899;SDS011;15243;50.726;7.080;2022-12-26T11:17:01;2.72;;;0.90;;
27899;SDS011;15243;50.726;7.080;2022-12-26T11:19:37;2.53;;;0.73;;
27899;SDS011;15243;50.726;7.080;2022-12-26T11:27:38;4.07;;;0.70;;
27899;SDS011;15243;50.726;7.080;2022-12-26T11:32:40;2.10;;;0.90;;
27899;SDS011;15243;50.726;7.080;2022-12-26T11:35:17;3.15;;;0.77;;
27899;SDS011;15243;50.726;7.080;2022-12-26T11:37:50;4.72;;;1.20;;
27899;SDS011;15243;50.726;7.080;2022-12-26T11:40:23;7.18;;;1.20;;
27899;SDS011;15243;50.726;7.080;2022-12-26T11:42:58;4.30;;;0.93;;
27899;SDS011;15243;50.726;7.080;2022-12-26T11:45:28;3.05;;;1.05;;
27899;SDS011;15243;50.726;7.080;2022-12-26T11:48:06;3.10;;;0.82;;
27899;SDS011;15243;50.726;7.080;2022-12-26T11:50:44;4.38;;;1.20;;
27899;SDS011;15243;50.726;7.080;2022-12-26T11:53:14;3.20;;;1.05;;
27899;SDS011;15243;50.726;7.080;2022-12-26T11:55:43;3.92;;;1.35;;
27899;SDS011;15243;50.726;7.080;2022-12-26T11:58:24;2.92;;;1.02;;
27899;SDS011;15243;50.726;7.080;2022-12-26T12:09:36;2.55;;;0.80;;
27899;SDS011;15243;50.726;7.080;2022-12-26T12:18:08;2.72;;;1.33;;
27899;SDS011;15243;50.726;7.080;2022-12-26T12:27:12;4.32;;;1.25;;
27899;SDS011;15243;50.726;7.080;2022-12-26T12:52:19;5.75;;;1.08;;
27899;SDS011;15243;50.726;7.080;2022-12-26T12:57:40;3.28;;;0.85;;
27899;SDS011;15243;50.726;7.080;2022-12-26T13:00:13;2.63;;;0.63;;
27899;SDS011;15243;50.726;7.080;2022-12-26T13:02:57;2.78;;;1.13;;
27899;SDS011;15243;50.726;7.080;2022-12-26T13:13:49;5.32;;;0.80;;
27899;SDS011;15243;50.726;7.080;2022-12-26T13:16:25;2.58;;;1.00;;
27899;SDS011;15243;50.726;7.080;2022-12-26T13:19:00;1.30;;;0.65;;
27899;SDS011;15243;50.726;7.080;2022-12-26T13:21:33;3.35;;;0.82;;
27899;SDS011;15243;50.726;7.080;2022-12-26T13:24:03;3.00;;;0.80;;
27899;SDS011;15243;50.726;7.080;2022-12-26T13:32:02;4.28;;;1.08;;
27899;SDS011;15243;50.726;7.080;2022-12-26T13:34:38;3.20;;;1.23;;
27899;SDS011;15243;50.726;7.080;2022-12-26T13:40:25;3.70;;;1.42;;
27899;SDS011;15243;50.726;7.080;2022-12-26T13:45:46;2.45;;;1.23;;
27899;SDS011;15243;50.726;7.080;2022-12-26T13:55:54;4.78;;;1.50;;
27899;SDS011;15243;50.726;7.080;2022-12-26T14:07:27;4.20;;;1.40;;
27899;SDS011;15243;50.726;7.080;2022-12-26T14:10:18;2.83;;;1.38;;
27899;SDS011;15243;50.726;7.080;2022-12-26T14:13:01;2.97;;;1.02;;
27899;SDS011;15243;50.726;7.080;2022-12-26T14:32:04;7.03;;;1.38;;
27899;SDS011;15243;50.726;7.080;2022-12-26T14:37:30;3.60;;;1.17;;
27899;SDS011;15243;50.726;7.080;2022-12-26T14:40:22;9.77;;;1.00;;
27899;SDS011;15243;50.726;7.080;2022-12-26T14:50:42;3.75;;;1.10;;
27899;SDS011;15243;50.726;7.080;2022-12-26T15:03:39;2.00;;;1.15;;
27899;SDS011;15243;50.726;7.080;2022-12-26T15:08:49;5.45;;;1.48;;
27899;SDS011;15243;50.726;7.080;2022-12-26T15:19:51;4.07;;;2.22;;
27899;SDS011;15243;50.726;7.080;2022-12-26T15:36:29;5.50;;;2.20;;
27899;SDS011;15243;50.726;7.080;2022-12-26T15:41:49;4.35;;;2.10;;
27899;SDS011;15243;50.726;7.080;2022-12-26T15:44:43;4.45;;;1.40;;
27899;SDS011;15243;50.726;7.080;2022-12-26T15:47:41;6.10;;;1.70;;
27899;SDS011;15243;50.726;7.080;2022-12-26T15:56:17;4.70;;;2.00;;
27899;SDS011;15243;50.726;7.080;2022-12-26T15:59:05;3.47;;;1.98;;
27899;SDS011;15243;50.726;7.080;2022-12-26T16:01:54;6.95;;;1.98;;
27899;SDS011;15243;50.726;7.080;2022-12-26T16:04:23;5.78;;;2.08;;
27899;SDS011;15243;50.726;7.080;2022-12-26T16:09:43;8.40;;;2.30;;
27899;SDS011;15243;50.726;7.080;2022-12-26T16:15:00;11.50;;;2.08;;
27899;SDS011;15243;50.726;7.080;2022-12-26T16:17:39;4.95;;;1.80;;
27899;SDS011;15243;50.726;7.080;2022-12-26T16:23:11;5.60;;;2.35;;
27899;SDS011;15243;50.726;7.080;2022-12-26T16:25:45;7.82;;;2.63;;
27899;SDS011;15243;50.726;7.080;2022-12-26T16:28:24;8.32;;;3.22;;
27899;SDS011;15243;50.726;7.080;2022-12-26T16:31:00;10.13;;;2.00;;
27899;SDS011;15243;50.726;7.080;2022-12-26T16:33:38;4.53;;;1.75;;
27899;SDS011;15243;50.726;7.080;2022-12-26T16:36:06;2.97;;;1.60;;
27899;SDS011;15243;50.726;7.080;2022-12-26T16:38:35;8.30;;;1.75;;
27899;SDS011;15243;50.726;7.080;2022-12-26T16:41:05;12.48;;;2.15;;
27899;SDS011;15243;50.726;7.080;2022-12-26T16:43:45;4.28;;;1.73;;
27899;SDS011;15243;50.726;7.080;2022-12-26T16:46:12;5.50;;;1.80;;
27899;SDS011;15243;50.726;7.080;2022-12-26T16:48:44;7.38;;;1.90;;
27899;SDS011;15243;50.726;7.080;2022-12-26T16:57:11;5.25;;;1.70;;
27899;SDS011;15243;50.726;7.080;2022-12-26T17:02:25;9.77;;;1.75;;
27899;SDS011;15243;50.726;7.080;2022-12-26T17:05:00;5.78;;;1.73;;
27899;SDS011;15243;50.726;7.080;2022-12-26T17:07:34;4.63;;;1.88;;
27899;SDS011;15243;50.726;7.080;2022-12-26T17:10:04;9.20;;;2.03;;
27899;SDS011;15243;50.726;7.080;2022-12-26T17:12:38;7.70;;;1.88;;
27899;SDS011;15243;50.726;7.080;2022-12-26T17:15:06;8.32;;;2.00;;
27899;SDS011;15243;50.726;7.080;2022-12-26T17:17:34;8.82;;;2.20;;
27899;SDS011;15243;50.726;7.080;2022-12-26T17:22:51;6.07;;;1.92;;
27899;SDS011;15243;50.726;7.080;2022-12-26T17:30:38;6.97;;;2.20;;
27899;SDS011;15243;50.726;7.080;2022-12-26T17:33:17;10.48;;;2.83;;
27899;SDS011;15243;50.726;7.080;2022-12-26T17:35:56;7.00;;;2.03;;
27899;SDS011;15243;50.726;7.080;2022-12-26T17:38:48;8.20;;;2.40;;
27899;SDS011;15243;50.726;7.080;2022-12-26T17:41:15;13.20;;;2.47;;
27899;SDS011;15243;50.726;7.080;2022-12-26T17:43:43;6.03;;;2.03;;
27899;SDS011;15243;50.726;7.080;2022-12-26T17:46:12;9.40;;;3.30;;
27899;SDS011;15243;50.726;7.080;2022-12-26T17:48:41;10.98;;;2.90;;
27899;SDS011;15243;50.726;7.080;2022-12-26T17:51:11;11.85;;;3.10;;
27899;SDS011;15243;50.726;7.080;2022-12-26T17:53:47;12.13;;;2.20;;
27899;SDS011;15243;50.726;7.080;2022-12-26T17:56:16;6.45;;;2.13;;
27899;SDS011;15243;50.726;7.080;2022-12-26T17:58:46;5.85;;;2.08;;
27899;SDS011;15243;50.726;7.080;2022-12-26T18:01:14;12.05;;;2.15;;
27899;SDS011;15243;50.726;7.080;2022-12-26T18:03:46;8.00;;;2.33;;
27899;SDS011;15243;50.726;7.080;2022-12-26T18:06:13;6.75;;;2.20;;
27899;SDS011;15243;50.726;7.080;2022-12-26T18:08:42;10.88;;;3.08;;
27899;SDS011;15243;50.726;7.080;2022-12-26T18:11:10;10.07;;;2.92;;
27899;SDS011;15243;50.726;7.080;2022-12-26T18:13:38;14.63;;;2.60;;
27899;SDS011;15243;50.726;7.080;2022-12-26T18:16:06;7.00;;;2.63;;
27899;SDS011;15243;50.726;7.080;2022-12-26T18:18:37;13.65;;;3.25;;
27899;SDS011;15243;50.726;7.080;2022-12-26T18:21:07;12.57;;;2.75;;
27899;SDS011;15243;50.726;7.080;2022-12-26T18:23:35;9.70;;;2.47;;
27899;SDS011;15243;50.726;7.080;2022-12-26T18:26:05;10.95;;;2.88;;
27899;SDS011;15243;50.726;7.080;2022-12-26T18:28:33;5.97;;;2.80;;
27899;SDS011;15243;50.726;7.080;2022-12-26T18:31:00;10.50;;;3.03;;
27899;SDS011;15243;50.726;7.080;2022-12-26T18:33:27;12.30;;;2.75;;
27899;SDS011;15243;50.726;7.080;2022-12-26T18:35:54;10.63;;;3.28;;
27899;SDS011;15243;50.726;7.080;2022-12-26T18:38:21;11.60;;;3.33;;
27899;SDS011;15243;50.726;7.080;2022-12-26T18:40:49;11.48;;;3.10;;
27899;SDS011;15243;50.726;7.080;2022-12-26T18:43:20;15.90;;;3.45;;
27899;SDS011;15243;50.726;7.080;2022-12-26T18:45:47;11.82;;;3.63;;
27899;SDS011;15243;50.726;7.080;2022-12-26T18:48:14;10.23;;;3.35;;
27899;SDS011;15243;50.726;7.080;2022-12-26T18:50:42;12.48;;;3.33;;
27899;SDS011;15243;50.726;7.080;2022-12-26T18:53:09;12.05;;;3.67;;
27899;SDS011;15243;50.726;7.080;2022-12-26T18:55:36;12.27;;;3.83;;
27899;SDS011;15243;50.726;7.080;2022-12-26T18:58:04;16.30;;;4.38;;
27899;SDS011;15243;50.726;7.080;2022-12-26T19:00:31;10.75;;;4.55;;
27899;SDS011;15243;50.726;7.080;2022-12-26T19:02:58;15.05;;;4.60;;
27899;SDS011;15243;50.726;7.080;2022-12-26T19:05:26;14.45;;;4.40;;
27899;SDS011;15243;50.726;7.080;2022-12-26T19:07:56;16.13;;;5.43;;
27899;SDS011;15243;50.726;7.080;2022-12-26T19:10:25;17.20;;;4.30;;
27899;SDS011;15243;50.726;7.080;2022-12-26T19:12:56;12.65;;;3.70;;
27899;SDS011;15243;50.726;7.080;2022-12-26T19:15:31;12.07;;;3.95;;
27899;SDS011;15243;50.726;7.080;2022-12-26T19:17:59;9.35;;;3.60;;
27899;SDS011;15243;50.726;7.080;2022-12-26T19:20:27;11.23;;;3.88;;
27899;SDS011;15243;50.726;7.080;2022-12-26T19:25:30;12.52;;;4.22;;
27899;SDS011;15243;50.726;7.080;2022-12-26T19:27:57;11.52;;;4.00;;
27899;SDS011;15243;50.726;7.080;2022-12-26T19:30:23;15.82;;;4.03;;
27899;SDS011;15243;50.726;7.080;2022-12-26T19:32:50;14.10;;;4.07;;
27899;SDS011;15243;50.726;7.080;2022-12-26T19:35:17;9.40;;;4.10;;
27899;SDS011;15243;50.726;7.080;2022-12-26T19:37:44;10.15;;;3.80;;